Terminal Aerodrome Forecast
Issued by NWS

Home | Current Version | Previous Version | Text Only | Print | Product List | Glossary On
Versions: 1 2 3 4 5 6 7 8 9 10 11 12 13 14 15 16
000
FTUS43 KMPX 122321
TAFRNH
TAF
KRNH 122321Z 1300/1324 18009KT P6SM -SN BKN025 OVC035
     FM130200 16006KT P6SM BKN015
     FM130500 15006KT P6SM BKN035
     FM131000 14005KT P6SM VCSH OVC035
     FM131200 VRB03KT 3SM -SN OVC008
     FM131400 35006KT 3SM -FZDZ OVC008
     FM131600 34011KT 6SM -FZDZ OVC010
     FM131800 33012G19KT 5SM -SN BR OVC015=

USA.gov is the U.S. government's official web portal to all federal, state and local government web resources and services.